sensor_id;sensor_type;location;lat;lon;timestamp;P1;durP1;ratioP1;P2;durP2;ratioP2
79438;SDS011;68889;48.232;10.110;2023-08-24T00:00:40;9.65;;;5.28;;
79438;SDS011;68889;48.232;10.110;2023-08-24T00:03:06;6.50;;;5.90;;
79438;SDS011;68889;48.232;10.110;2023-08-24T00:05:35;6.30;;;5.70;;
79438;SDS011;68889;48.232;10.110;2023-08-24T00:08:05;6.30;;;5.70;;
79438;SDS011;68889;48.232;10.110;2023-08-24T00:10:34;5.85;;;5.25;;
79438;SDS011;68889;48.232;10.110;2023-08-24T00:13:01;6.18;;;5.15;;
79438;SDS011;68889;48.232;10.110;2023-08-24T00:17:52;6.32;;;5.32;;
79438;SDS011;68889;48.232;10.110;2023-08-24T00:20:17;8.68;;;5.43;;
79438;SDS011;68889;48.232;10.110;2023-08-24T00:22:45;5.72;;;4.38;;
79438;SDS011;68889;48.232;10.110;2023-08-24T00:25:11;5.63;;;5.10;;
79438;SDS011;68889;48.232;10.110;2023-08-24T00:27:37;6.50;;;5.90;;
79438;SDS011;68889;48.232;10.110;2023-08-24T00:32:34;5.60;;;5.05;;
79438;SDS011;68889;48.232;10.110;2023-08-24T00:35:04;6.38;;;5.32;;
79438;SDS011;68889;48.232;10.110;2023-08-24T00:37:31;7.30;;;5.90;;
79438;SDS011;68889;48.232;10.110;2023-08-24T00:40:01;7.22;;;5.88;;
79438;SDS011;68889;48.232;10.110;2023-08-24T00:42:30;8.45;;;5.82;;
79438;SDS011;68889;48.232;10.110;2023-08-24T00:44:56;7.00;;;5.85;;
79438;SDS011;68889;48.232;10.110;2023-08-24T00:47:23;7.15;;;6.40;;
79438;SDS011;68889;48.232;10.110;2023-08-24T00:49:48;6.38;;;5.78;;
79438;SDS011;68889;48.232;10.110;2023-08-24T00:54:40;7.07;;;6.03;;
79438;SDS011;68889;48.232;10.110;2023-08-24T00:59:32;8.73;;;6.78;;
79438;SDS011;68889;48.232;10.110;2023-08-24T01:01:58;7.50;;;6.80;;
79438;SDS011;68889;48.232;10.110;2023-08-24T01:04:24;7.82;;;6.57;;
79438;SDS011;68889;48.232;10.110;2023-08-24T01:09:17;7.13;;;5.55;;
79438;SDS011;68889;48.232;10.110;2023-08-24T01:14:47;7.45;;;6.65;;
79438;SDS011;68889;48.232;10.110;2023-08-24T01:17:11;7.18;;;5.70;;
79438;SDS011;68889;48.232;10.110;2023-08-24T01:19:41;7.13;;;5.35;;
79438;SDS011;68889;48.232;10.110;2023-08-24T01:25:20;7.32;;;6.63;;
79438;SDS011;68889;48.232;10.110;2023-08-24T01:27:48;7.75;;;6.18;;
79438;SDS011;68889;48.232;10.110;2023-08-24T01:30:15;7.85;;;7.15;;
79438;SDS011;68889;48.232;10.110;2023-08-24T01:32:42;6.10;;;5.50;;
79438;SDS011;68889;48.232;10.110;2023-08-24T01:37:34;6.53;;;5.93;;
79438;SDS011;68889;48.232;10.110;2023-08-24T01:40:10;9.48;;;6.15;;
79438;SDS011;68889;48.232;10.110;2023-08-24T01:42:45;6.70;;;5.68;;
79438;SDS011;68889;48.232;10.110;2023-08-24T01:45:13;9.13;;;5.93;;
79438;SDS011;68889;48.232;10.110;2023-08-24T01:47:41;7.88;;;6.32;;
79438;SDS011;68889;48.232;10.110;2023-08-24T01:50:07;6.18;;;5.57;;
79438;SDS011;68889;48.232;10.110;2023-08-24T01:52:34;6.95;;;5.07;;
79438;SDS011;68889;48.232;10.110;2023-08-24T01:57:25;8.45;;;5.90;;
79438;SDS011;68889;48.232;10.110;2023-08-24T01:59:51;8.00;;;6.13;;
79438;SDS011;68889;48.232;10.110;2023-08-24T02:02:17;8.13;;;6.88;;
79438;SDS011;68889;48.232;10.110;2023-08-24T02:04:42;8.80;;;6.00;;
79438;SDS011;68889;48.232;10.110;2023-08-24T02:09:33;7.30;;;5.82;;
79438;SDS011;68889;48.232;10.110;2023-08-24T02:14:24;6.43;;;5.82;;
79438;SDS011;68889;48.232;10.110;2023-08-24T02:19:15;6.82;;;6.13;;
79438;SDS011;68889;48.232;10.110;2023-08-24T02:24:06;8.02;;;6.45;;
79438;SDS011;68889;48.232;10.110;2023-08-24T02:28:59;7.93;;;7.13;;
79438;SDS011;68889;48.232;10.110;2023-08-24T02:31:25;8.50;;;7.70;;
79438;SDS011;68889;48.232;10.110;2023-08-24T02:36:16;7.93;;;6.07;;
79438;SDS011;68889;48.232;10.110;2023-08-24T02:41:07;6.05;;;5.47;;
79438;SDS011;68889;48.232;10.110;2023-08-24T02:43:34;6.30;;;5.70;;
79438;SDS011;68889;48.232;10.110;2023-08-24T02:48:28;6.60;;;5.97;;
79438;SDS011;68889;48.232;10.110;2023-08-24T02:50:55;7.60;;;6.60;;
79438;SDS011;68889;48.232;10.110;2023-08-24T02:53:24;7.22;;;6.53;;
79438;SDS011;68889;48.232;10.110;2023-08-24T02:58:16;6.50;;;5.90;;
79438;SDS011;68889;48.232;10.110;2023-08-24T03:03:07;6.68;;;5.78;;
79438;SDS011;68889;48.232;10.110;2023-08-24T03:07:58;6.85;;;5.88;;
79438;SDS011;68889;48.232;10.110;2023-08-24T03:12:49;9.23;;;6.50;;
79438;SDS011;68889;48.232;10.110;2023-08-24T03:17:41;7.40;;;6.70;;
79438;SDS011;68889;48.232;10.110;2023-08-24T03:22:33;7.25;;;6.55;;
79438;SDS011;68889;48.232;10.110;2023-08-24T03:27:24;6.85;;;6.15;;
79438;SDS011;68889;48.232;10.110;2023-08-24T03:29:51;6.68;;;6.07;;
79438;SDS011;68889;48.232;10.110;2023-08-24T03:32:18;7.00;;;6.05;;
79438;SDS011;68889;48.232;10.110;2023-08-24T03:37:09;6.85;;;6.15;;
79438;SDS011;68889;48.232;10.110;2023-08-24T03:39:38;6.88;;;6.13;;
79438;SDS011;68889;48.232;10.110;2023-08-24T03:42:04;8.00;;;7.20;;
79438;SDS011;68889;48.232;10.110;2023-08-24T03:46:55;6.78;;;6.07;;
79438;SDS011;68889;48.232;10.110;2023-08-24T03:51:46;6.93;;;6.22;;
79438;SDS011;68889;48.232;10.110;2023-08-24T03:56:37;7.43;;;6.72;;
79438;SDS011;68889;48.232;10.110;2023-08-24T03:59:03;7.65;;;6.93;;
79438;SDS011;68889;48.232;10.110;2023-08-24T04:03:54;8.70;;;7.80;;
79438;SDS011;68889;48.232;10.110;2023-08-24T04:08:45;9.68;;;8.68;;
79438;SDS011;68889;48.232;10.110;2023-08-24T04:13:37;9.68;;;8.68;;
79438;SDS011;68889;48.232;10.110;2023-08-24T04:16:02;8.63;;;7.15;;
79438;SDS011;68889;48.232;10.110;2023-08-24T04:20:54;9.15;;;8.25;;
79438;SDS011;68889;48.232;10.110;2023-08-24T04:25:50;10.60;;;8.30;;
79438;SDS011;68889;48.232;10.110;2023-08-24T04:30:48;11.55;;;10.38;;
79438;SDS011;68889;48.232;10.110;2023-08-24T04:33:17;8.75;;;7.63;;
79438;SDS011;68889;48.232;10.110;2023-08-24T04:38:10;9.32;;;8.38;;
79438;SDS011;68889;48.232;10.110;2023-08-24T04:43:15;7.68;;;6.88;;
79438;SDS011;68889;48.232;10.110;2023-08-24T04:48:06;8.32;;;7.15;;
79438;SDS011;68889;48.232;10.110;2023-08-24T04:52:57;8.02;;;6.70;;
79438;SDS011;68889;48.232;10.110;2023-08-24T04:57:48;12.98;;;7.85;;
79438;SDS011;68889;48.232;10.110;2023-08-24T05:02:41;9.07;;;8.18;;
79438;SDS011;68889;48.232;10.110;2023-08-24T05:05:08;12.88;;;7.93;;
79438;SDS011;68889;48.232;10.110;2023-08-24T05:07:39;11.05;;;7.95;;
79438;SDS011;68889;48.232;10.110;2023-08-24T05:10:05;9.05;;;7.55;;
79438;SDS011;68889;48.232;10.110;2023-08-24T05:12:33;10.60;;;8.13;;
79438;SDS011;68889;48.232;10.110;2023-08-24T05:15:01;11.60;;;9.20;;
79438;SDS011;68889;48.232;10.110;2023-08-24T05:17:27;9.90;;;8.85;;
79438;SDS011;68889;48.232;10.110;2023-08-24T05:22:19;10.25;;;7.47;;
79438;SDS011;68889;48.232;10.110;2023-08-24T05:27:10;14.55;;;7.80;;
79438;SDS011;68889;48.232;10.110;2023-08-24T05:32:01;9.98;;;7.55;;
79438;SDS011;68889;48.232;10.110;2023-08-24T05:34:27;10.20;;;8.02;;
79438;SDS011;68889;48.232;10.110;2023-08-24T05:39:19;10.68;;;7.50;;
79438;SDS011;68889;48.232;10.110;2023-08-24T05:44:10;8.60;;;7.45;;
79438;SDS011;68889;48.232;10.110;2023-08-24T05:46:35;7.93;;;6.90;;
79438;SDS011;68889;48.232;10.110;2023-08-24T05:49:01;8.75;;;6.78;;
79438;SDS011;68889;48.232;10.110;2023-08-24T05:51:27;10.35;;;8.27;;
79438;SDS011;68889;48.232;10.110;2023-08-24T05:56:21;9.15;;;7.50;;
79438;SDS011;68889;48.232;10.110;2023-08-24T05:58:47;9.57;;;8.63;;
79438;SDS011;68889;48.232;10.110;2023-08-24T06:01:13;9.07;;;7.63;;
79438;SDS011;68889;48.232;10.110;2023-08-24T06:06:04;7.95;;;7.18;;
79438;SDS011;68889;48.232;10.110;2023-08-24T06:08:30;8.43;;;7.43;;
79438;SDS011;68889;48.232;10.110;2023-08-24T06:10:56;8.50;;;7.30;;
79438;SDS011;68889;48.232;10.110;2023-08-24T06:13:23;7.45;;;6.68;;
79438;SDS011;68889;48.232;10.110;2023-08-24T06:15:48;8.93;;;7.65;;
79438;SDS011;68889;48.232;10.110;2023-08-24T06:18:14;7.80;;;7.00;;
79438;SDS011;68889;48.232;10.110;2023-08-24T06:20:40;8.57;;;7.68;;
79438;SDS011;68889;48.232;10.110;2023-08-24T06:23:06;6.93;;;6.20;;
79438;SDS011;68889;48.232;10.110;2023-08-24T06:25:32;7.97;;;7.20;;
79438;SDS011;68889;48.232;10.110;2023-08-24T06:27:58;9.13;;;6.45;;
79438;SDS011;68889;48.232;10.110;2023-08-24T06:30:25;10.82;;;7.07;;
79438;SDS011;68889;48.232;10.110;2023-08-24T06:32:51;7.03;;;6.32;;
79438;SDS011;68889;48.232;10.110;2023-08-24T06:35:17;9.68;;;6.35;;
79438;SDS011;68889;48.232;10.110;2023-08-24T06:37:43;9.50;;;6.72;;
79438;SDS011;68889;48.232;10.110;2023-08-24T06:40:09;10.38;;;7.55;;
79438;SDS011;68889;48.232;10.110;2023-08-24T06:42:35;11.52;;;8.15;;
79438;SDS011;68889;48.232;10.110;2023-08-24T06:45:01;9.20;;;7.25;;
79438;SDS011;68889;48.232;10.110;2023-08-24T06:47:26;10.15;;;7.50;;
79438;SDS011;68889;48.232;10.110;2023-08-24T06:49:52;6.68;;;5.60;;
79438;SDS011;68889;48.232;10.110;2023-08-24T06:52:17;8.95;;;6.25;;
79438;SDS011;68889;48.232;10.110;2023-08-24T06:54:44;8.70;;;5.75;;
79438;SDS011;68889;48.232;10.110;2023-08-24T06:57:09;7.20;;;6.45;;
79438;SDS011;68889;48.232;10.110;2023-08-24T07:02:00;7.47;;;6.30;;
79438;SDS011;68889;48.232;10.110;2023-08-24T07:04:26;6.85;;;6.15;;
79438;SDS011;68889;48.232;10.110;2023-08-24T07:06:52;7.63;;;6.55;;
79438;SDS011;68889;48.232;10.110;2023-08-24T07:09:19;7.28;;;6.57;;
79438;SDS011;68889;48.232;10.110;2023-08-24T07:11:44;7.10;;;6.40;;
79438;SDS011;68889;48.232;10.110;2023-08-24T07:14:10;8.07;;;6.78;;
79438;SDS011;68889;48.232;10.110;2023-08-24T07:16:35;7.60;;;6.70;;
79438;SDS011;68889;48.232;10.110;2023-08-24T07:19:01;7.65;;;6.93;;
79438;SDS011;68889;48.232;10.110;2023-08-24T07:21:27;6.43;;;5.82;;
79438;SDS011;68889;48.232;10.110;2023-08-24T07:23:52;6.30;;;5.70;;
79438;SDS011;68889;48.232;10.110;2023-08-24T07:26:18;7.03;;;6.38;;
79438;SDS011;68889;48.232;10.110;2023-08-24T07:28:44;6.40;;;5.78;;
79438;SDS011;68889;48.232;10.110;2023-08-24T07:31:10;7.10;;;6.40;;
79438;SDS011;68889;48.232;10.110;2023-08-24T07:33:36;7.22;;;6.32;;
79438;SDS011;68889;48.232;10.110;2023-08-24T07:36:05;7.10;;;6.47;;
79438;SDS011;68889;48.232;10.110;2023-08-24T07:38:31;6.55;;;5.80;;
79438;SDS011;68889;48.232;10.110;2023-08-24T07:40:57;7.95;;;6.15;;
79438;SDS011;68889;48.232;10.110;2023-08-24T07:43:23;6.68;;;6.07;;
79438;SDS011;68889;48.232;10.110;2023-08-24T07:45:49;6.95;;;6.28;;
79438;SDS011;68889;48.232;10.110;2023-08-24T07:48:15;7.00;;;6.30;;
79438;SDS011;68889;48.232;10.110;2023-08-24T07:50:40;6.45;;;5.63;;
79438;SDS011;68889;48.232;10.110;2023-08-24T07:53:06;6.72;;;6.13;;
79438;SDS011;68889;48.232;10.110;2023-08-24T07:55:31;8.90;;;8.00;;
79438;SDS011;68889;48.232;10.110;2023-08-24T07:57:57;8.30;;;7.18;;
79438;SDS011;68889;48.232;10.110;2023-08-24T08:00:23;9.23;;;7.28;;
79438;SDS011;68889;48.232;10.110;2023-08-24T08:02:50;8.15;;;7.32;;
79438;SDS011;68889;48.232;10.110;2023-08-24T08:05:16;7.75;;;7.03;;
79438;SDS011;68889;48.232;10.110;2023-08-24T08:07:42;6.28;;;5.32;;
79438;SDS011;68889;48.232;10.110;2023-08-24T08:10:08;7.47;;;6.78;;
79438;SDS011;68889;48.232;10.110;2023-08-24T08:12:34;6.60;;;6.00;;
79438;SDS011;68889;48.232;10.110;2023-08-24T08:15:01;7.30;;;6.45;;
79438;SDS011;68889;48.232;10.110;2023-08-24T08:17:26;6.72;;;5.90;;
79438;SDS011;68889;48.232;10.110;2023-08-24T08:19:55;7.35;;;6.65;;
79438;SDS011;68889;48.232;10.110;2023-08-24T08:22:22;7.47;;;6.82;;
79438;SDS011;68889;48.232;10.110;2023-08-24T08:24:48;7.28;;;6.18;;
79438;SDS011;68889;48.232;10.110;2023-08-24T08:27:15;6.65;;;5.88;;
79438;SDS011;68889;48.232;10.110;2023-08-24T08:29:40;7.03;;;6.43;;
79438;SDS011;68889;48.232;10.110;2023-08-24T08:32:06;6.85;;;6.15;;
79438;SDS011;68889;48.232;10.110;2023-08-24T08:34:32;7.32;;;6.60;;
79438;SDS011;68889;48.232;10.110;2023-08-24T08:36:58;6.97;;;6.38;;
79438;SDS011;68889;48.232;10.110;2023-08-24T08:39:23;6.07;;;5.43;;
79438;SDS011;68889;48.232;10.110;2023-08-24T08:41:49;6.63;;;5.97;;
79438;SDS011;68889;48.232;10.110;2023-08-24T08:44:15;5.97;;;5.32;;
79438;SDS011;68889;48.232;10.110;2023-08-24T08:46:41;7.28;;;6.55;;
79438;SDS011;68889;48.232;10.110;2023-08-24T08:49:08;6.47;;;5.88;;
79438;SDS011;68889;48.232;10.110;2023-08-24T08:51:36;7.97;;;7.28;;
79438;SDS011;68889;48.232;10.110;2023-08-24T08:54:03;6.70;;;6.10;;
79438;SDS011;68889;48.232;10.110;2023-08-24T08:56:30;6.20;;;5.70;;
79438;SDS011;68889;48.232;10.110;2023-08-24T08:58:56;8.55;;;6.85;;
79438;SDS011;68889;48.232;10.110;2023-08-24T09:01:28;6.70;;;6.00;;
79438;SDS011;68889;48.232;10.110;2023-08-24T09:03:54;6.82;;;6.22;;
79438;SDS011;68889;48.232;10.110;2023-08-24T09:06:22;7.53;;;6.85;;
79438;SDS011;68889;48.232;10.110;2023-08-24T09:08:48;7.88;;;6.90;;
79438;SDS011;68889;48.232;10.110;2023-08-24T09:11:15;6.68;;;5.93;;
79438;SDS011;68889;48.232;10.110;2023-08-24T09:13:43;6.47;;;5.88;;
79438;SDS011;68889;48.232;10.110;2023-08-24T09:16:10;6.00;;;5.50;;
79438;SDS011;68889;48.232;10.110;2023-08-24T09:18:43;6.20;;;5.63;;
79438;SDS011;68889;48.232;10.110;2023-08-24T09:21:11;5.75;;;5.20;;
79438;SDS011;68889;48.232;10.110;2023-08-24T09:23:45;7.20;;;6.38;;
79438;SDS011;68889;48.232;10.110;2023-08-24T09:26:22;8.10;;;6.20;;
79438;SDS011;68889;48.232;10.110;2023-08-24T09:28:55;7.30;;;6.65;;
79438;SDS011;68889;48.232;10.110;2023-08-24T09:31:21;9.20;;;6.45;;
79438;SDS011;68889;48.232;10.110;2023-08-24T09:33:47;7.25;;;6.57;;
79438;SDS011;68889;48.232;10.110;2023-08-24T09:36:16;6.72;;;6.13;;
79438;SDS011;68889;48.232;10.110;2023-08-24T09:38:45;7.07;;;6.47;;
79438;SDS011;68889;48.232;10.110;2023-08-24T09:41:13;6.85;;;6.20;;
79438;SDS011;68889;48.232;10.110;2023-08-24T09:43:39;6.22;;;5.63;;
79438;SDS011;68889;48.232;10.110;2023-08-24T09:46:05;9.75;;;6.68;;
79438;SDS011;68889;48.232;10.110;2023-08-24T09:48:32;6.55;;;5.95;;
79438;SDS011;68889;48.232;10.110;2023-08-24T09:50:58;7.20;;;6.45;;
79438;SDS011;68889;48.232;10.110;2023-08-24T09:53:29;9.57;;;6.15;;
79438;SDS011;68889;48.232;10.110;2023-08-24T09:56:02;6.32;;;5.72;;
79438;SDS011;68889;48.232;10.110;2023-08-24T09:58:28;6.85;;;5.65;;
79438;SDS011;68889;48.232;10.110;2023-08-24T10:00:55;6.60;;;5.43;;
79438;SDS011;68889;48.232;10.110;2023-08-24T10:03:24;5.50;;;4.97;;
79438;SDS011;68889;48.232;10.110;2023-08-24T10:05:54;6.00;;;5.40;;
79438;SDS011;68889;48.232;10.110;2023-08-24T10:08:29;5.93;;;5.43;;
79438;SDS011;68889;48.232;10.110;2023-08-24T10:10:59;7.20;;;5.57;;
79438;SDS011;68889;48.232;10.110;2023-08-24T10:16:14;6.68;;;6.05;;
79438;SDS011;68889;48.232;10.110;2023-08-24T10:18:43;5.82;;;5.18;;
79438;SDS011;68889;48.232;10.110;2023-08-24T10:21:09;5.32;;;4.82;;
79438;SDS011;68889;48.232;10.110;2023-08-24T10:23:35;6.95;;;6.15;;
79438;SDS011;68889;48.232;10.110;2023-08-24T10:26:02;6.60;;;5.47;;
79438;SDS011;68889;48.232;10.110;2023-08-24T10:28:30;7.22;;;5.57;;
79438;SDS011;68889;48.232;10.110;2023-08-24T10:30:57;5.78;;;5.20;;
79438;SDS011;68889;48.232;10.110;2023-08-24T10:33:24;5.93;;;5.43;;
79438;SDS011;68889;48.232;10.110;2023-08-24T10:35:51;4.95;;;4.55;;
79438;SDS011;68889;48.232;10.110;2023-08-24T10:38:24;7.03;;;6.32;;
79438;SDS011;68889;48.232;10.110;2023-08-24T10:40:54;6.25;;;5.38;;
79438;SDS011;68889;48.232;10.110;2023-08-24T10:43:26;6.53;;;5.70;;
79438;SDS011;68889;48.232;10.110;2023-08-24T10:45:55;5.82;;;5.32;;
79438;SDS011;68889;48.232;10.110;2023-08-24T10:48:25;5.80;;;5.15;;
79438;SDS011;68889;48.232;10.110;2023-08-24T10:56:16;5.68;;;5.18;;
79438;SDS011;68889;48.232;10.110;2023-08-24T10:58:43;6.53;;;5.70;;
79438;SDS011;68889;48.232;10.110;2023-08-24T11:01:19;7.53;;;5.60;;
79438;SDS011;68889;48.232;10.110;2023-08-24T11:03:49;6.18;;;5.60;;
79438;SDS011;68889;48.232;10.110;2023-08-24T11:06:19;6.05;;;5.45;;
79438;SDS011;68889;48.232;10.110;2023-08-24T11:09:04;6.18;;;5.68;;
79438;SDS011;68889;48.232;10.110;2023-08-24T11:11:39;5.75;;;5.25;;
79438;SDS011;68889;48.232;10.110;2023-08-24T11:14:15;6.65;;;6.00;;
79438;SDS011;68889;48.232;10.110;2023-08-24T11:16:55;6.00;;;5.50;;
79438;SDS011;68889;48.232;10.110;2023-08-24T11:19:27;6.35;;;5.70;;
79438;SDS011;68889;48.232;10.110;2023-08-24T11:21:53;5.88;;;4.97;;
79438;SDS011;68889;48.232;10.110;2023-08-24T11:24:18;6.25;;;5.68;;
79438;SDS011;68889;48.232;10.110;2023-08-24T11:26:45;6.15;;;4.95;;
79438;SDS011;68889;48.232;10.110;2023-08-24T11:29:12;5.63;;;4.60;;
79438;SDS011;68889;48.232;10.110;2023-08-24T11:31:38;5.40;;;4.90;;
79438;SDS011;68889;48.232;10.110;2023-08-24T11:34:04;5.60;;;5.10;;
79438;SDS011;68889;48.232;10.110;2023-08-24T11:36:31;7.35;;;5.35;;
79438;SDS011;68889;48.232;10.110;2023-08-24T11:38:57;6.13;;;5.53;;
79438;SDS011;68889;48.232;10.110;2023-08-24T11:41:24;7.53;;;6.70;;
79438;SDS011;68889;48.232;10.110;2023-08-24T11:43:55;5.78;;;5.25;;
79438;SDS011;68889;48.232;10.110;2023-08-24T11:46:24;5.40;;;4.90;;
79438;SDS011;68889;48.232;10.110;2023-08-24T11:48:50;6.65;;;5.95;;
79438;SDS011;68889;48.232;10.110;2023-08-24T11:51:16;6.47;;;5.88;;
79438;SDS011;68889;48.232;10.110;2023-08-24T11:53:42;6.90;;;6.20;;
79438;SDS011;68889;48.232;10.110;2023-08-24T11:56:12;5.90;;;5.30;;
79438;SDS011;68889;48.232;10.110;2023-08-24T11:58:39;5.78;;;5.28;;
79438;SDS011;68889;48.232;10.110;2023-08-24T12:01:05;6.57;;;5.22;;
79438;SDS011;68889;48.232;10.110;2023-08-24T12:03:32;6.40;;;5.18;;
79438;SDS011;68889;48.232;10.110;2023-08-24T12:06:01;6.38;;;5.78;;
79438;SDS011;68889;48.232;10.110;2023-08-24T12:08:28;6.60;;;5.25;;
79438;SDS011;68889;48.232;10.110;2023-08-24T12:10:54;6.30;;;5.25;;
79438;SDS011;68889;48.232;10.110;2023-08-24T12:13:20;5.68;;;5.18;;
79438;SDS011;68889;48.232;10.110;2023-08-24T12:15:47;5.55;;;4.80;;
79438;SDS011;68889;48.232;10.110;2023-08-24T12:18:15;6.15;;;5.15;;
79438;SDS011;68889;48.232;10.110;2023-08-24T12:20:41;6.82;;;5.35;;
79438;SDS011;68889;48.232;10.110;2023-08-24T12:23:07;5.20;;;4.57;;
79438;SDS011;68889;48.232;10.110;2023-08-24T12:25:42;5.15;;;4.65;;
79438;SDS011;68889;48.232;10.110;2023-08-24T12:28:11;5.25;;;4.75;;
79438;SDS011;68889;48.232;10.110;2023-08-24T12:30:48;6.40;;;4.93;;
79438;SDS011;68889;48.232;10.110;2023-08-24T12:33:28;5.22;;;4.72;;
79438;SDS011;68889;48.232;10.110;2023-08-24T12:35:56;6.53;;;5.60;;
79438;SDS011;68889;48.232;10.110;2023-08-24T12:38:24;6.82;;;4.80;;
79438;SDS011;68889;48.232;10.110;2023-08-24T12:40:50;5.85;;;5.03;;
79438;SDS011;68889;48.232;10.110;2023-08-24T12:43:16;5.78;;;5.28;;
79438;SDS011;68889;48.232;10.110;2023-08-24T12:45:42;6.05;;;5.20;;
79438;SDS011;68889;48.232;10.110;2023-08-24T12:48:08;5.10;;;4.63;;
79438;SDS011;68889;48.232;10.110;2023-08-24T12:50:34;8.07;;;5.03;;
79438;SDS011;68889;48.232;10.110;2023-08-24T12:53:00;6.00;;;5.05;;
79438;SDS011;68889;48.232;10.110;2023-08-24T12:55:27;5.47;;;4.97;;
79438;SDS011;68889;48.232;10.110;2023-08-24T12:57:54;7.07;;;4.63;;
79438;SDS011;68889;48.232;10.110;2023-08-24T13:00:20;6.38;;;5.63;;
79438;SDS011;68889;48.232;10.110;2023-08-24T13:02:46;5.60;;;4.85;;
79438;SDS011;68889;48.232;10.110;2023-08-24T13:05:13;8.73;;;5.30;;
79438;SDS011;68889;48.232;10.110;2023-08-24T13:07:38;5.43;;;4.93;;
79438;SDS011;68889;48.232;10.110;2023-08-24T13:10:04;7.32;;;5.53;;
79438;SDS011;68889;48.232;10.110;2023-08-24T13:12:31;5.70;;;4.97;;
79438;SDS011;68889;48.232;10.110;2023-08-24T13:14:57;6.03;;;4.78;;
79438;SDS011;68889;48.232;10.110;2023-08-24T13:17:23;5.93;;;5.28;;
79438;SDS011;68889;48.232;10.110;2023-08-24T13:19:48;7.88;;;4.47;;
79438;SDS011;68889;48.232;10.110;2023-08-24T13:22:14;5.80;;;5.05;;
79438;SDS011;68889;48.232;10.110;2023-08-24T13:24:40;6.50;;;5.13;;
79438;SDS011;68889;48.232;10.110;2023-08-24T13:27:08;6.35;;;5.25;;
79438;SDS011;68889;48.232;10.110;2023-08-24T13:29:35;5.45;;;4.70;;
79438;SDS011;68889;48.232;10.110;2023-08-24T13:32:02;5.70;;;4.55;;
79438;SDS011;68889;48.232;10.110;2023-08-24T13:34:27;6.50;;;5.13;;
79438;SDS011;68889;48.232;10.110;2023-08-24T13:36:53;6.43;;;5.25;;
79438;SDS011;68889;48.232;10.110;2023-08-24T13:39:19;6.88;;;4.50;;
79438;SDS011;68889;48.232;10.110;2023-08-24T13:41:44;7.03;;;5.65;;
79438;SDS011;68889;48.232;10.110;2023-08-24T13:44:10;9.50;;;5.88;;
79438;SDS011;68889;48.232;10.110;2023-08-24T13:46:35;5.50;;;5.00;;
79438;SDS011;68889;48.232;10.110;2023-08-24T13:49:01;8.52;;;5.47;;
79438;SDS011;68889;48.232;10.110;2023-08-24T13:51:27;6.22;;;5.05;;
79438;SDS011;68889;48.232;10.110;2023-08-24T13:53:53;8.30;;;5.45;;
79438;SDS011;68889;48.232;10.110;2023-08-24T13:56:19;5.55;;;4.68;;
79438;SDS011;68889;48.232;10.110;2023-08-24T13:58:45;5.93;;;4.60;;
79438;SDS011;68889;48.232;10.110;2023-08-24T14:01:11;8.05;;;5.70;;
79438;SDS011;68889;48.232;10.110;2023-08-24T14:03:38;5.10;;;4.30;;
79438;SDS011;68889;48.232;10.110;2023-08-24T14:06:05;6.70;;;4.63;;
79438;SDS011;68889;48.232;10.110;2023-08-24T14:08:31;6.50;;;4.88;;
79438;SDS011;68889;48.232;10.110;2023-08-24T14:10:56;4.30;;;3.55;;
79438;SDS011;68889;48.232;10.110;2023-08-24T14:13:22;7.25;;;4.18;;
79438;SDS011;68889;48.232;10.110;2023-08-24T14:15:49;7.60;;;4.57;;
79438;SDS011;68889;48.232;10.110;2023-08-24T14:18:15;6.95;;;4.32;;
79438;SDS011;68889;48.232;10.110;2023-08-24T14:20:41;5.32;;;4.22;;
79438;SDS011;68889;48.232;10.110;2023-08-24T14:23:07;5.28;;;4.13;;
79438;SDS011;68889;48.232;10.110;2023-08-24T14:25:33;6.38;;;4.25;;
79438;SDS011;68889;48.232;10.110;2023-08-24T14:27:59;7.60;;;4.13;;
79438;SDS011;68889;48.232;10.110;2023-08-24T14:30:24;7.22;;;4.05;;
79438;SDS011;68889;48.232;10.110;2023-08-24T14:32:50;5.60;;;3.97;;
79438;SDS011;68889;48.232;10.110;2023-08-24T14:35:16;4.10;;;3.70;;
79438;SDS011;68889;48.232;10.110;2023-08-24T14:37:41;8.98;;;4.13;;
79438;SDS011;68889;48.232;10.110;2023-08-24T14:40:07;7.03;;;5.10;;
79438;SDS011;68889;48.232;10.110;2023-08-24T14:42:33;8.82;;;4.20;;
79438;SDS011;68889;48.232;10.110;2023-08-24T14:44:58;6.18;;;3.78;;
79438;SDS011;68889;48.232;10.110;2023-08-24T14:47:24;9.13;;;4.15;;
79438;SDS011;68889;48.232;10.110;2023-08-24T14:49:50;7.85;;;4.00;;
79438;SDS011;68889;48.232;10.110;2023-08-24T14:52:15;7.47;;;4.15;;
79438;SDS011;68889;48.232;10.110;2023-08-24T14:54:41;8.52;;;5.65;;
79438;SDS011;68889;48.232;10.110;2023-08-24T14:57:06;8.15;;;4.07;;
79438;SDS011;68889;48.232;10.110;2023-08-24T14:59:32;7.00;;;4.15;;
79438;SDS011;68889;48.232;10.110;2023-08-24T15:01:58;7.20;;;3.53;;
79438;SDS011;68889;48.232;10.110;2023-08-24T15:04:26;6.00;;;3.30;;
79438;SDS011;68889;48.232;10.110;2023-08-24T15:06:52;11.10;;;4.10;;
79438;SDS011;68889;48.232;10.110;2023-08-24T15:09:18;11.18;;;3.78;;
79438;SDS011;68889;48.232;10.110;2023-08-24T15:11:43;8.75;;;4.18;;
79438;SDS011;68889;48.232;10.110;2023-08-24T15:14:09;10.95;;;4.20;;
79438;SDS011;68889;48.232;10.110;2023-08-24T15:16:34;6.57;;;3.20;;
79438;SDS011;68889;48.232;10.110;2023-08-24T15:19:00;10.05;;;3.63;;
79438;SDS011;68889;48.232;10.110;2023-08-24T15:21:26;6.90;;;3.83;;
79438;SDS011;68889;48.232;10.110;2023-08-24T15:23:53;6.85;;;3.85;;
79438;SDS011;68889;48.232;10.110;2023-08-24T15:26:19;6.57;;;3.40;;
79438;SDS011;68889;48.232;10.110;2023-08-24T15:31:43;8.30;;;3.50;;
79438;SDS011;68889;48.232;10.110;2023-08-24T15:34:09;7.13;;;3.67;;
79438;SDS011;68889;48.232;10.110;2023-08-24T15:36:35;7.32;;;3.03;;
79438;SDS011;68889;48.232;10.110;2023-08-24T15:39:01;7.50;;;3.45;;
79438;SDS011;68889;48.232;10.110;2023-08-24T15:41:28;7.35;;;3.75;;
79438;SDS011;68889;48.232;10.110;2023-08-24T15:43:54;7.65;;;4.28;;
79438;SDS011;68889;48.232;10.110;2023-08-24T15:46:20;10.40;;;3.53;;
79438;SDS011;68889;48.232;10.110;2023-08-24T15:48:45;10.20;;;3.97;;
79438;SDS011;68889;48.232;10.110;2023-08-24T15:51:11;9.40;;;3.72;;
79438;SDS011;68889;48.232;10.110;2023-08-24T15:53:36;11.10;;;4.53;;
79438;SDS011;68889;48.232;10.110;2023-08-24T15:56:02;10.55;;;4.47;;
79438;SDS011;68889;48.232;10.110;2023-08-24T15:58:28;11.88;;;7.90;;
79438;SDS011;68889;48.232;10.110;2023-08-24T16:00:53;8.40;;;5.05;;
79438;SDS011;68889;48.232;10.110;2023-08-24T16:03:19;8.45;;;3.85;;
79438;SDS011;68889;48.232;10.110;2023-08-24T16:05:44;8.45;;;3.55;;
79438;SDS011;68889;48.232;10.110;2023-08-24T16:08:10;9.07;;;3.83;;
79438;SDS011;68889;48.232;10.110;2023-08-24T16:10:35;7.60;;;3.38;;
79438;SDS011;68889;48.232;10.110;2023-08-24T16:13:02;9.40;;;3.78;;
79438;SDS011;68889;48.232;10.110;2023-08-24T16:15:28;9.48;;;3.67;;
79438;SDS011;68889;48.232;10.110;2023-08-24T16:17:54;8.07;;;4.15;;
79438;SDS011;68889;48.232;10.110;2023-08-24T16:20:19;8.00;;;4.55;;
79438;SDS011;68889;48.232;10.110;2023-08-24T16:22:45;10.05;;;4.45;;
79438;SDS011;68889;48.232;10.110;2023-08-24T16:25:11;9.85;;;4.10;;
79438;SDS011;68889;48.232;10.110;2023-08-24T16:27:36;8.88;;;4.50;;
79438;SDS011;68889;48.232;10.110;2023-08-24T16:30:03;10.73;;;3.88;;
79438;SDS011;68889;48.232;10.110;2023-08-24T16:32:29;6.22;;;3.55;;
79438;SDS011;68889;48.232;10.110;2023-08-24T16:34:55;11.93;;;3.95;;
79438;SDS011;68889;48.232;10.110;2023-08-24T16:37:21;9.77;;;3.70;;
79438;SDS011;68889;48.232;10.110;2023-08-24T16:39:47;9.82;;;3.75;;